createdAt,value
2022-10-25T00:00:18.653Z,96.52
2022-10-25T00:01:18.038Z,96.42
2022-10-25T00:02:18.873Z,96.52
2022-10-25T00:03:18.634Z,96.42
2022-10-25T00:04:18.065Z,96.83
2022-10-25T00:05:18.673Z,96.52
2022-10-25T00:06:51.336Z,96.36
2022-10-25T00:07:17.937Z,96.92
2022-10-25T00:08:18.064Z,96.67
2022-10-25T00:09:18.122Z,96.67
2022-10-25T00:10:20.093Z,97.17
2022-10-25T00:11:18.789Z,97.28
2022-10-25T00:12:19.711Z,97.13
2022-10-25T00:13:17.901Z,97.38
2022-10-25T00:14:18.673Z,97.58
2022-10-25T00:15:17.796Z,97.07
2022-10-25T00:16:17.848Z,96.87
2022-10-25T00:17:17.859Z,96.67
2022-10-25T00:18:18.034Z,97.07
2022-10-25T00:19:18.359Z,97.33
2022-10-25T00:20:17.835Z,96.72
2022-10-25T00:21:18.336Z,97.07
2022-10-25T00:22:18.096Z,97.07
2022-10-25T00:23:18.314Z,97.03
2022-10-25T00:24:17.653Z,96.62
2022-10-25T00:25:17.777Z,96.62
2022-10-25T00:26:17.801Z,96.52
2022-10-25T00:27:18.208Z,96.17
2022-10-25T00:28:18.315Z,96.47
2022-10-25T00:29:17.767Z,96.72
2022-10-25T00:30:18.817Z,96.27
2022-10-25T00:31:17.773Z,96.68
2022-10-25T00:32:17.640Z,96.72
2022-10-25T00:33:18.291Z,96.52
2022-10-25T00:34:17.719Z,96.31
2022-10-25T00:35:17.606Z,96.22
2022-10-25T00:36:17.545Z,95.76
2022-10-25T00:37:17.626Z,95.86
2022-10-25T00:38:18.438Z,95.86
2022-10-25T00:39:17.650Z,96.11
2022-10-25T00:40:18.140Z,96.11
2022-10-25T00:41:18.321Z,95.50
2022-10-25T00:42:18.819Z,96.22
2022-10-25T00:43:18.376Z,95.97
2022-10-25T00:44:18.698Z,96.01
2022-10-25T00:45:17.514Z,95.86
2022-10-25T00:46:17.439Z,95.91
2022-10-25T00:47:17.609Z,95.30
2022-10-25T00:48:18.324Z,95.56
2022-10-25T00:49:18.421Z,95.40
2022-10-25T00:50:18.825Z,95.30
2022-10-25T00:51:17.425Z,95.40
2022-10-25T00:52:17.414Z,95.50
2022-10-25T00:53:18.159Z,95.40
2022-10-25T00:54:17.423Z,96.01
2022-10-25T00:55:17.559Z,96.01
2022-10-25T00:56:17.348Z,95.61
2022-10-25T00:57:18.329Z,96.42
2022-10-25T00:58:19.322Z,96.22
2022-10-25T00:59:17.363Z,96.22
2022-10-25T01:00:17.529Z,95.81
2022-10-25T01:01:18.388Z,96.46
2022-10-25T01:02:17.557Z,96.36
2022-10-25T01:03:17.370Z,96.22
2022-10-25T01:04:17.328Z,96.46
2022-10-25T01:05:17.393Z,96.26
2022-10-25T01:06:17.330Z,96.36
2022-10-25T01:07:17.406Z,96.36
2022-10-25T02:02:08.068Z,98.64
2022-10-25T02:09:30.783Z,98.83
2022-10-25T05:22:19.147Z,99.44
2022-10-25T05:23:18.971Z,99.75
2022-10-25T05:24:18.519Z,99.99
2022-10-25T06:57:02.580Z,99.99
2022-10-25T19:32:45.864Z,99.99
2022-10-25T19:33:45.916Z,99.99
2022-10-25T19:34:46.298Z,99.99
2022-10-25T19:35:45.814Z,99.99
2022-10-25T19:36:45.782Z,99.99
2022-10-25T19:37:46.230Z,99.99
2022-10-25T19:38:45.731Z,99.99
2022-10-25T19:39:46.799Z,99.99
2022-10-25T19:40:45.718Z,99.99
2022-10-25T19:41:45.715Z,99.99
2022-10-25T19:42:45.693Z,99.99
2022-10-25T19:43:45.724Z,99.99
2022-10-25T19:44:45.835Z,99.99
2022-10-25T19:45:45.778Z,99.99
2022-10-25T19:46:45.689Z,99.99
2022-10-25T19:47:45.824Z,99.99
2022-10-25T19:48:45.692Z,99.99
2022-10-25T19:49:45.630Z,99.99
2022-10-25T19:51:19.393Z,99.99
2022-10-25T19:51:45.622Z,99.99
2022-10-25T19:52:45.795Z,99.99
2022-10-25T19:53:45.601Z,99.99
2022-10-25T19:54:45.648Z,99.99
2022-10-25T19:55:45.586Z,99.99
2022-10-25T19:56:45.606Z,99.99
2022-10-25T19:57:45.937Z,99.99
2022-10-25T19:58:45.582Z,99.99
2022-10-25T19:59:45.718Z,99.99
2022-10-25T20:00:45.569Z,99.99
2022-10-25T20:01:45.816Z,99.99
2022-10-25T20:02:45.535Z,99.99
2022-10-25T20:03:45.562Z,99.99
2022-10-25T20:04:45.579Z,99.99
2022-10-25T20:05:46.112Z,99.99
2022-10-25T20:06:45.507Z,99.99
2022-10-25T20:07:45.608Z,99.99
2022-10-25T20:08:45.503Z,99.99
2022-10-25T20:09:45.551Z,99.99
2022-10-25T20:10:46.487Z,99.99
2022-10-25T20:11:45.515Z,99.99
2022-10-25T20:12:45.576Z,99.99
2022-10-25T20:13:45.448Z,99.99
2022-10-25T20:14:45.561Z,99.99
2022-10-25T20:15:45.480Z,99.99
2022-10-25T20:16:46.116Z,99.99
2022-10-25T20:17:46.426Z,99.99
